sensor_id;sensor_type;location;lat;lon;timestamp;pressure;altitude;pressure_sealevel;temperature;humidity
788;BME280;16074;42.708;23.312;2022-11-20T00:01:07;142231.19;;;16.22;84.98
788;BME280;16074;42.708;23.312;2022-11-20T00:03:36;142208.22;;;16.12;85.05
788;BME280;16074;42.708;23.312;2022-11-20T00:06:06;142226.34;;;16.20;84.79
788;BME280;16074;42.708;23.312;2022-11-20T00:08:35;142221.50;;;16.18;85.84
788;BME280;16074;42.708;23.312;2022-11-20T00:11:04;142209.47;;;16.13;85.79
788;BME280;16074;42.708;23.312;2022-11-20T00:13:39;142207.03;;;16.12;85.51
788;BME280;16074;42.708;23.312;2022-11-20T00:16:10;142211.88;;;16.14;84.89
788;BME280;16074;42.708;23.312;2022-11-20T00:18:39;142227.59;;;16.20;81.35
788;BME280;16074;42.708;23.312;2022-11-20T00:21:10;142260.31;;;16.34;80.54
788;BME280;16074;42.708;23.312;2022-11-20T00:23:39;142294.22;;;16.48;78.90
788;BME280;16074;42.708;23.312;2022-11-20T00:26:10;142348.69;;;16.70;78.51
788;BME280;16074;42.708;23.312;2022-11-20T00:28:39;142368.06;;;16.78;77.06
788;BME280;16074;42.708;23.312;2022-11-20T00:31:11;142382.63;;;16.84;76.72
788;BME280;16074;42.708;23.312;2022-11-20T00:33:39;142388.66;;;16.86;75.91
788;BME280;16074;42.708;23.312;2022-11-20T00:36:10;142399.56;;;16.91;76.24
788;BME280;16074;42.708;23.312;2022-11-20T00:38:38;142425.00;;;17.01;72.98
788;BME280;16074;42.708;23.312;2022-11-20T00:41:08;142490.38;;;17.28;69.75
788;BME280;16074;42.708;23.312;2022-11-20T00:43:37;142526.78;;;17.43;69.39
788;BME280;16074;42.708;23.312;2022-11-20T00:46:07;142571.63;;;17.62;67.91
788;BME280;16074;42.708;23.312;2022-11-20T00:48:37;142603.13;;;17.75;67.29
788;BME280;16074;42.708;23.312;2022-11-20T00:51:05;142649.22;;;17.94;65.18
788;BME280;16074;42.708;23.312;2022-11-20T00:53:34;142902.75;;;18.98;60.57
788;BME280;16074;42.708;23.312;2022-11-20T00:56:04;142911.22;;;19.01;59.70
788;BME280;16074;42.708;23.312;2022-11-20T00:58:33;142947.69;;;19.16;59.45
788;BME280;16074;42.708;23.312;2022-11-20T01:01:04;143007.13;;;19.40;57.84
788;BME280;16074;42.708;23.312;2022-11-20T01:03:34;143027.75;;;19.49;58.24
788;BME280;16074;42.708;23.312;2022-11-20T01:06:06;143035.03;;;19.52;58.07
788;BME280;16074;42.708;23.312;2022-11-20T01:08:35;143045.94;;;19.56;57.98
788;BME280;16074;42.708;23.312;2022-11-20T01:11:06;143048.38;;;19.57;58.14
788;BME280;16074;42.708;23.312;2022-11-20T01:13:35;143056.91;;;19.61;57.71
788;BME280;16074;42.708;23.312;2022-11-20T01:16:09;143042.31;;;19.55;57.28
788;BME280;16074;42.708;23.312;2022-11-20T01:18:40;143060.53;;;19.62;56.94
788;BME280;16074;42.708;23.312;2022-11-20T01:21:11;143075.09;;;19.68;57.13
788;BME280;16074;42.708;23.312;2022-11-20T01:23:41;143083.63;;;19.72;56.08
788;BME280;16074;42.708;23.312;2022-11-20T01:26:13;143101.81;;;19.79;55.86
788;BME280;16074;42.708;23.312;2022-11-20T01:28:42;143056.91;;;19.61;55.94
788;BME280;16074;42.708;23.312;2022-11-20T01:31:12;143052.03;;;19.59;56.44
788;BME280;16074;42.708;23.312;2022-11-20T01:33:41;143059.31;;;19.62;55.88
788;BME280;16074;42.708;23.312;2022-11-20T01:36:12;143071.47;;;19.67;55.56
788;BME280;16074;42.708;23.312;2022-11-20T01:38:41;143070.22;;;19.66;56.71
788;BME280;16074;42.708;23.312;2022-11-20T01:41:10;143083.63;;;19.72;55.87
788;BME280;16074;42.708;23.312;2022-11-20T01:43:58;143056.91;;;19.61;55.76
788;BME280;16074;42.708;23.312;2022-11-20T01:46:26;143030.19;;;19.50;55.87
788;BME280;16074;42.708;23.312;2022-11-20T01:48:57;143071.47;;;19.67;55.40
788;BME280;16074;42.708;23.312;2022-11-20T01:51:30;143083.63;;;19.72;55.03
788;BME280;16074;42.708;23.312;2022-11-20T01:54:04;143059.31;;;19.62;55.38
788;BME280;16074;42.708;23.312;2022-11-20T01:56:37;143064.19;;;19.64;54.81
788;BME280;16074;42.708;23.312;2022-11-20T01:59:07;143098.19;;;19.78;54.50
788;BME280;16074;42.708;23.312;2022-11-20T02:01:37;143113.97;;;19.84;54.97
788;BME280;16074;42.708;23.312;2022-11-20T02:04:07;143101.81;;;19.79;55.82
788;BME280;16074;42.708;23.312;2022-11-20T02:06:40;143106.66;;;19.81;55.66
788;BME280;16074;42.708;23.312;2022-11-20T02:09:11;143015.63;;;19.44;56.63
788;BME280;16074;42.708;23.312;2022-11-20T02:11:40;143022.91;;;19.47;56.87
788;BME280;16074;42.708;23.312;2022-11-20T02:14:08;142952.53;;;19.18;56.74
788;BME280;16074;42.708;23.312;2022-11-20T02:16:38;142956.16;;;19.20;56.76
788;BME280;16074;42.708;23.312;2022-11-20T02:19:13;142980.44;;;19.29;56.85
788;BME280;16074;42.708;23.312;2022-11-20T02:21:49;143001.03;;;19.38;55.77
788;BME280;16074;42.708;23.312;2022-11-20T02:24:22;143024.13;;;19.47;55.74
788;BME280;16074;42.708;23.312;2022-11-20T02:26:53;143052.03;;;19.59;54.55
788;BME280;16074;42.708;23.312;2022-11-20T02:29:26;143069.03;;;19.66;55.10
788;BME280;16074;42.708;23.312;2022-11-20T02:31:55;143070.22;;;19.66;54.72
788;BME280;16074;42.708;23.312;2022-11-20T02:34:25;143037.47;;;19.53;55.38
788;BME280;16074;42.708;23.312;2022-11-20T02:36:54;143047.19;;;19.57;55.34
788;BME280;16074;42.708;23.312;2022-11-20T02:39:25;143024.13;;;19.47;55.93
788;BME280;16074;42.708;23.312;2022-11-20T02:41:55;143045.94;;;19.56;55.04
788;BME280;16074;42.708;23.312;2022-11-20T02:44:24;143042.31;;;19.55;55.40
788;BME280;16074;42.708;23.312;2022-11-20T02:46:52;143044.75;;;19.56;55.72
788;BME280;16074;42.708;23.312;2022-11-20T02:49:20;143012.00;;;19.42;56.33
788;BME280;16074;42.708;23.312;2022-11-20T02:51:49;142992.56;;;19.34;56.71
788;BME280;16074;42.708;23.312;2022-11-20T02:54:17;142992.56;;;19.34;57.53
788;BME280;16074;42.708;23.312;2022-11-20T02:56:46;143002.28;;;19.38;57.75
788;BME280;16074;42.708;23.312;2022-11-20T02:59:15;143019.28;;;19.45;57.97
788;BME280;16074;42.708;23.312;2022-11-20T03:01:43;143009.56;;;19.41;58.15
788;BME280;16074;42.708;23.312;2022-11-20T03:04:11;142967.09;;;19.24;59.29
788;BME280;16074;42.708;23.312;2022-11-20T03:06:39;142942.81;;;19.14;59.84
788;BME280;16074;42.708;23.312;2022-11-20T03:09:08;142940.34;;;19.13;59.97
788;BME280;16074;42.708;23.312;2022-11-20T03:11:36;142933.06;;;19.10;59.70
788;BME280;16074;42.708;23.312;2022-11-20T03:14:05;142908.78;;;19.00;60.97
788;BME280;16074;42.708;23.312;2022-11-20T03:16:34;142918.50;;;19.04;61.38
788;BME280;16074;42.708;23.312;2022-11-20T03:19:02;142919.69;;;19.05;61.29
788;BME280;16074;42.708;23.312;2022-11-20T03:21:30;142941.59;;;19.14;60.74
788;BME280;16074;42.708;23.312;2022-11-20T03:24:01;142896.66;;;18.95;61.86
788;BME280;16074;42.708;23.312;2022-11-20T03:26:29;142878.47;;;18.88;62.27
788;BME280;16074;42.708;23.312;2022-11-20T03:28:59;142891.78;;;18.93;62.23
788;BME280;16074;42.708;23.312;2022-11-20T03:31:31;142889.38;;;18.92;62.06
788;BME280;16074;42.708;23.312;2022-11-20T03:34:00;142885.75;;;18.91;62.84
788;BME280;16074;42.708;23.312;2022-11-20T03:36:29;142856.63;;;18.79;62.41
788;BME280;16074;42.708;23.312;2022-11-20T03:38:57;142848.09;;;18.75;61.94
788;BME280;16074;42.708;23.312;2022-11-20T03:41:27;142877.22;;;18.87;62.12
788;BME280;16074;42.708;23.312;2022-11-20T03:43:57;142860.25;;;18.80;62.06
788;BME280;16074;42.708;23.312;2022-11-20T03:46:26;142852.97;;;18.77;62.08
788;BME280;16074;42.708;23.312;2022-11-20T03:48:57;142874.81;;;18.86;61.96
788;BME280;16074;42.708;23.312;2022-11-20T03:51:26;142869.94;;;18.84;62.92
788;BME280;16074;42.708;23.312;2022-11-20T03:53:57;142876.03;;;18.87;62.77
788;BME280;16074;42.708;23.312;2022-11-20T03:56:27;142884.50;;;18.90;62.99
788;BME280;16074;42.708;23.312;2022-11-20T03:58:56;142889.38;;;18.92;62.86
788;BME280;16074;42.708;23.312;2022-11-20T04:01:26;142889.38;;;18.92;62.93
788;BME280;16074;42.708;23.312;2022-11-20T04:03:55;142873.63;;;18.86;62.95
788;BME280;16074;42.708;23.312;2022-11-20T04:06:27;142869.94;;;18.84;63.14
788;BME280;16074;42.708;23.312;2022-11-20T04:08:56;142882.09;;;18.89;63.04
788;BME280;16074;42.708;23.312;2022-11-20T04:11:27;142861.47;;;18.81;63.46
788;BME280;16074;42.708;23.312;2022-11-20T04:13:57;142759.59;;;18.39;64.67
788;BME280;16074;42.708;23.312;2022-11-20T04:16:29;142774.13;;;18.45;64.82
788;BME280;16074;42.708;23.312;2022-11-20T04:18:58;142737.78;;;18.30;65.24
788;BME280;16074;42.708;23.312;2022-11-20T04:21:28;142751.09;;;18.35;62.85
788;BME280;16074;42.708;23.312;2022-11-20T04:23:57;142791.09;;;18.52;62.50
788;BME280;16074;42.708;23.312;2022-11-20T04:26:27;142776.53;;;18.46;62.80
788;BME280;16074;42.708;23.312;2022-11-20T04:28:56;142785.06;;;18.49;63.33
788;BME280;16074;42.708;23.312;2022-11-20T04:31:27;142787.47;;;18.50;62.45
788;BME280;16074;42.708;23.312;2022-11-20T04:33:59;142774.13;;;18.45;62.84
788;BME280;16074;42.708;23.312;2022-11-20T04:36:29;142785.06;;;18.49;62.56
788;BME280;16074;42.708;23.312;2022-11-20T04:38:58;142743.81;;;18.32;63.70
788;BME280;16074;42.708;23.312;2022-11-20T04:41:29;142766.84;;;18.42;61.97
788;BME280;16074;42.708;23.312;2022-11-20T04:43:59;142769.25;;;18.43;61.78
788;BME280;16074;42.708;23.312;2022-11-20T04:46:31;142810.50;;;18.60;61.50
788;BME280;16074;42.708;23.312;2022-11-20T04:49:00;142792.34;;;18.52;62.79
788;BME280;16074;42.708;23.312;2022-11-20T04:51:29;142794.75;;;18.53;61.96
788;BME280;16074;42.708;23.312;2022-11-20T04:53:58;142806.91;;;18.58;61.42
788;BME280;16074;42.708;23.312;2022-11-20T04:56:26;142771.69;;;18.44;62.28
788;BME280;16074;42.708;23.312;2022-11-20T04:58:54;142802.03;;;18.56;62.48
788;BME280;16074;42.708;23.312;2022-11-20T05:01:24;142805.66;;;18.58;62.72
788;BME280;16074;42.708;23.312;2022-11-20T05:03:52;142770.50;;;18.43;62.83
788;BME280;16074;42.708;23.312;2022-11-20T05:06:21;142760.78;;;18.39;63.12
788;BME280;16074;42.708;23.312;2022-11-20T05:08:50;142762.03;;;18.40;63.25
788;BME280;16074;42.708;23.312;2022-11-20T05:11:20;142718.31;;;18.22;63.50
788;BME280;16074;42.708;23.312;2022-11-20T05:13:49;142751.09;;;18.35;63.02
788;BME280;16074;42.708;23.312;2022-11-20T05:16:19;142754.75;;;18.37;62.64
788;BME280;16074;42.708;23.312;2022-11-20T05:18:48;142771.69;;;18.44;62.40
788;BME280;16074;42.708;23.312;2022-11-20T05:21:17;142763.22;;;18.40;61.85
788;BME280;16074;42.708;23.312;2022-11-20T05:23:46;142792.34;;;18.52;61.28
788;BME280;16074;42.708;23.312;2022-11-20T05:26:17;142777.78;;;18.46;61.59
788;BME280;16074;42.708;23.312;2022-11-20T05:28:46;142794.75;;;18.53;61.40
788;BME280;16074;42.708;23.312;2022-11-20T05:31:16;142791.09;;;18.52;62.15
788;BME280;16074;42.708;23.312;2022-11-20T05:33:52;142786.25;;;18.50;61.82
788;BME280;16074;42.708;23.312;2022-11-20T05:36:21;142797.19;;;18.54;62.20
788;BME280;16074;42.708;23.312;2022-11-20T05:38:49;142780.19;;;18.47;62.15
788;BME280;16074;42.708;23.312;2022-11-20T05:41:22;142771.69;;;18.44;63.35
788;BME280;16074;42.708;23.312;2022-11-20T05:43:51;142752.31;;;18.36;63.50
788;BME280;16074;42.708;23.312;2022-11-20T05:46:20;142760.78;;;18.39;64.95
788;BME280;16074;42.708;23.312;2022-11-20T05:48:55;142742.63;;;18.32;66.84
788;BME280;16074;42.708;23.312;2022-11-20T05:51:25;142714.66;;;18.20;68.68
788;BME280;16074;42.708;23.312;2022-11-20T05:53:53;142702.53;;;18.15;69.25
788;BME280;16074;42.708;23.312;2022-11-20T05:56:25;142641.94;;;17.91;72.06
788;BME280;16074;42.708;23.312;2022-11-20T05:58:53;142651.63;;;17.95;72.22
788;BME280;16074;42.708;23.312;2022-11-20T06:01:23;142617.69;;;17.81;72.74
788;BME280;16074;42.708;23.312;2022-11-20T06:03:52;142612.84;;;17.79;73.14
788;BME280;16074;42.708;23.312;2022-11-20T06:06:21;142594.69;;;17.71;72.72
788;BME280;16074;42.708;23.312;2022-11-20T06:08:49;142591.00;;;17.70;73.03
788;BME280;16074;42.708;23.312;2022-11-20T06:11:18;142612.84;;;17.79;72.01
788;BME280;16074;42.708;23.312;2022-11-20T06:13:48;142587.41;;;17.68;72.56
788;BME280;16074;42.708;23.312;2022-11-20T06:16:18;142598.28;;;17.73;72.25
788;BME280;16074;42.708;23.312;2022-11-20T06:18:47;142628.56;;;17.85;71.61
788;BME280;16074;42.708;23.312;2022-11-20T06:21:18;142641.94;;;17.91;71.41
788;BME280;16074;42.708;23.312;2022-11-20T06:23:47;142644.38;;;17.92;71.10
788;BME280;16074;42.708;23.312;2022-11-20T06:26:21;142661.34;;;17.98;70.12
788;BME280;16074;42.708;23.312;2022-11-20T06:28:51;142663.75;;;17.99;70.33
788;BME280;16074;42.708;23.312;2022-11-20T06:31:21;142666.19;;;18.00;69.52
788;BME280;16074;42.708;23.312;2022-11-20T06:33:50;142674.66;;;18.04;69.14
788;BME280;16074;42.708;23.312;2022-11-20T06:36:20;142664.94;;;18.00;69.13
788;BME280;16074;42.708;23.312;2022-11-20T06:38:50;142715.88;;;18.21;68.19
788;BME280;16074;42.708;23.312;2022-11-20T06:41:20;142721.94;;;18.23;68.13
788;BME280;16074;42.708;23.312;2022-11-20T06:43:50;142702.53;;;18.15;68.31
788;BME280;16074;42.708;23.312;2022-11-20T06:46:19;142686.78;;;18.09;68.95
788;BME280;16074;42.708;23.312;2022-11-20T06:48:48;142706.19;;;18.17;69.13
788;BME280;16074;42.708;23.312;2022-11-20T06:51:16;142714.66;;;18.20;68.93
788;BME280;16074;42.708;23.312;2022-11-20T06:53:45;142735.34;;;18.29;68.61
788;BME280;16074;42.708;23.312;2022-11-20T06:56:13;142760.78;;;18.39;68.56
788;BME280;16074;42.708;23.312;2022-11-20T06:58:41;142772.94;;;18.44;68.19
788;BME280;16074;42.708;23.312;2022-11-20T07:01:12;142800.81;;;18.56;67.21
788;BME280;16074;42.708;23.312;2022-11-20T07:03:42;142829.94;;;18.68;67.38
788;BME280;16074;42.708;23.312;2022-11-20T07:06:13;142844.50;;;18.74;66.02
788;BME280;16074;42.708;23.312;2022-11-20T07:08:41;142850.53;;;18.76;65.41
788;BME280;16074;42.708;23.312;2022-11-20T07:11:11;142816.59;;;18.62;66.01
788;BME280;16074;42.708;23.312;2022-11-20T07:13:40;142752.31;;;18.36;67.03
788;BME280;16074;42.708;23.312;2022-11-20T07:16:08;142806.91;;;18.58;67.00
788;BME280;16074;42.708;23.312;2022-11-20T07:18:38;142804.47;;;18.57;67.09
788;BME280;16074;42.708;23.312;2022-11-20T07:21:08;142823.88;;;18.65;67.32
788;BME280;16074;42.708;23.312;2022-11-20T07:23:36;142843.25;;;18.73;67.36
788;BME280;16074;42.708;23.312;2022-11-20T07:26:06;142855.38;;;18.78;66.66
788;BME280;16074;42.708;23.312;2022-11-20T07:28:34;142852.97;;;18.77;65.78
788;BME280;16074;42.708;23.312;2022-11-20T07:31:03;142850.53;;;18.76;66.48
788;BME280;16074;42.708;23.312;2022-11-20T07:33:33;142805.66;;;18.58;67.10
788;BME280;16074;42.708;23.312;2022-11-20T07:36:04;142848.09;;;18.75;66.57
788;BME280;16074;42.708;23.312;2022-11-20T07:38:32;142860.25;;;18.80;66.35
788;BME280;16074;42.708;23.312;2022-11-20T07:41:00;142862.66;;;18.81;66.36
788;BME280;16074;42.708;23.312;2022-11-20T07:43:29;142828.75;;;18.67;66.43
788;BME280;16074;42.708;23.312;2022-11-20T07:46:04;142837.22;;;18.71;66.42
788;BME280;16074;42.708;23.312;2022-11-20T07:48:32;142840.81;;;18.72;65.69
788;BME280;16074;42.708;23.312;2022-11-20T07:51:02;142831.16;;;18.68;66.33
788;BME280;16074;42.708;23.312;2022-11-20T07:53:31;142846.91;;;18.75;66.95
788;BME280;16074;42.708;23.312;2022-11-20T07:55:59;142852.97;;;18.77;66.74
788;BME280;16074;42.708;23.312;2022-11-20T07:58:28;142834.78;;;18.70;65.96
788;BME280;16074;42.708;23.312;2022-11-20T08:01:02;142848.09;;;18.75;66.23
788;BME280;16074;42.708;23.312;2022-11-20T08:03:31;142854.19;;;18.78;66.63
788;BME280;16074;42.708;23.312;2022-11-20T08:05:59;142865.09;;;18.82;66.56
788;BME280;16074;42.708;23.312;2022-11-20T08:08:29;142775.34;;;18.45;66.26
788;BME280;16074;42.708;23.312;2022-11-20T08:11:00;142809.31;;;18.59;66.24
788;BME280;16074;42.708;23.312;2022-11-20T08:13:42;142845.69;;;18.74;65.56
788;BME280;16074;42.708;23.312;2022-11-20T08:16:28;142842.06;;;18.73;65.20
788;BME280;16074;42.708;23.312;2022-11-20T08:18:56;142851.78;;;18.77;64.57
788;BME280;16074;42.708;23.312;2022-11-20T08:21:25;142838.41;;;18.71;65.09
788;BME280;16074;42.708;23.312;2022-11-20T08:23:54;142840.81;;;18.72;65.01
788;BME280;16074;42.708;23.312;2022-11-20T08:26:23;142800.81;;;18.56;66.63
788;BME280;16074;42.708;23.312;2022-11-20T08:28:53;142785.06;;;18.49;67.66
788;BME280;16074;42.708;23.312;2022-11-20T08:31:22;142755.94;;;18.37;67.85
788;BME280;16074;42.708;23.312;2022-11-20T08:33:51;142726.84;;;18.25;69.12
788;BME280;16074;42.708;23.312;2022-11-20T08:36:20;142728.06;;;18.26;69.36
788;BME280;16074;42.708;23.312;2022-11-20T08:38:48;142768.06;;;18.42;69.19
788;BME280;16074;42.708;23.312;2022-11-20T08:41:19;142792.34;;;18.52;68.48
788;BME280;16074;42.708;23.312;2022-11-20T08:43:55;142798.38;;;18.55;69.35
788;BME280;16074;42.708;23.312;2022-11-20T08:46:25;142805.66;;;18.58;68.40
788;BME280;16074;42.708;23.312;2022-11-20T08:48:54;142778.97;;;18.47;69.40
788;BME280;16074;42.708;23.312;2022-11-20T08:51:22;142662.53;;;17.99;74.53
788;BME280;16074;42.708;23.312;2022-11-20T08:53:50;142479.50;;;17.24;81.51
788;BME280;16074;42.708;23.312;2022-11-20T08:56:20;142297.81;;;16.49;89.91
788;BME280;16074;42.708;23.312;2022-11-20T08:58:49;142209.47;;;16.13;97.45
788;BME280;16074;42.708;23.312;2022-11-20T09:01:38;142151.34;;;15.89;100.00
788;BME280;16074;42.708;23.312;2022-11-20T09:04:06;142142.91;;;15.85;100.00
788;BME280;16074;42.708;23.312;2022-11-20T09:06:34;142122.31;;;15.77;100.00
788;BME280;16074;42.708;23.312;2022-11-20T09:09:03;142139.25;;;15.84;100.00
788;BME280;16074;42.708;23.312;2022-11-20T09:11:34;142136.81;;;15.83;100.00
788;BME280;16074;42.708;23.312;2022-11-20T09:14:03;142141.66;;;15.85;100.00
788;BME280;16074;42.708;23.312;2022-11-20T09:16:31;142140.47;;;15.84;100.00
788;BME280;16074;42.708;23.312;2022-11-20T09:18:59;142123.53;;;15.77;100.00
788;BME280;16074;42.708;23.312;2022-11-20T09:21:47;142090.84;;;15.64;100.00
788;BME280;16074;42.708;23.312;2022-11-20T09:24:16;142054.59;;;15.49;100.00
788;BME280;16074;42.708;23.312;2022-11-20T09:26:46;142007.41;;;15.30;100.00
788;BME280;16074;42.708;23.312;2022-11-20T09:29:14;141948.09;;;15.05;100.00
788;BME280;16074;42.708;23.312;2022-11-20T09:31:42;141910.63;;;14.90;100.00
788;BME280;16074;42.708;23.312;2022-11-20T09:34:10;141876.75;;;14.76;100.00
788;BME280;16074;42.708;23.312;2022-11-20T09:36:38;141842.94;;;14.62;100.00
788;BME280;16074;42.708;23.312;2022-11-20T09:39:07;141824.78;;;14.54;100.00
788;BME280;16074;42.708;23.312;2022-11-20T09:41:56;141844.13;;;14.62;100.00
788;BME280;16074;42.708;23.312;2022-11-20T09:44:40;141844.13;;;14.62;100.00
788;BME280;16074;42.708;23.312;2022-11-20T09:47:24;141905.78;;;14.88;100.00
788;BME280;16074;42.708;23.312;2022-11-20T09:50:03;142002.59;;;15.28;100.00
788;BME280;16074;42.708;23.312;2022-11-20T09:52:44;142094.50;;;15.65;100.00
788;BME280;16074;42.708;23.312;2022-11-20T09:55:17;142176.75;;;15.99;100.00
788;BME280;16074;42.708;23.312;2022-11-20T09:57:48;142248.16;;;16.29;100.00
788;BME280;16074;42.708;23.312;2022-11-20T10:00:19;142286.94;;;16.45;100.00
788;BME280;16074;42.708;23.312;2022-11-20T10:02:52;142360.81;;;16.75;100.00
788;BME280;16074;42.708;23.312;2022-11-20T10:05:27;142460.09;;;17.16;100.00
788;BME280;16074;42.708;23.312;2022-11-20T10:08:11;142549.84;;;17.53;100.00
788;BME280;16074;42.708;23.312;2022-11-20T10:10:46;142656.50;;;17.97;100.00
788;BME280;16074;42.708;23.312;2022-11-20T10:13:40;142787.47;;;18.50;100.00
788;BME280;16074;42.708;23.312;2022-11-20T10:16:20;142843.25;;;18.73;100.00
788;BME280;16074;42.708;23.312;2022-11-20T10:19:03;142871.19;;;18.85;100.00
788;BME280;16074;42.708;23.312;2022-11-20T10:21:41;142919.69;;;19.05;100.00
788;BME280;16074;42.708;23.312;2022-11-20T10:24:48;142954.97;;;19.19;98.84
788;BME280;16074;42.708;23.312;2022-11-20T10:27:35;142846.91;;;18.75;98.37
788;BME280;16074;42.708;23.312;2022-11-20T10:30:12;142851.78;;;18.77;98.44
788;BME280;16074;42.708;23.312;2022-11-20T10:32:43;142852.97;;;18.77;92.92
788;BME280;16074;42.708;23.312;2022-11-20T10:35:20;142736.53;;;18.29;94.89
788;BME280;16074;42.708;23.312;2022-11-20T10:37:54;142746.25;;;18.33;95.46
788;BME280;16074;42.708;23.312;2022-11-20T10:40:29;142711.03;;;18.19;98.84
788;BME280;16074;42.708;23.312;2022-11-20T10:43:02;142672.22;;;18.03;100.00
788;BME280;16074;42.708;23.312;2022-11-20T10:45:43;142584.97;;;17.67;100.00
788;BME280;16074;42.708;23.312;2022-11-20T10:48:16;142548.59;;;17.52;100.00
788;BME280;16074;42.708;23.312;2022-11-20T10:50:55;142405.59;;;16.93;100.00
788;BME280;16074;42.708;23.312;2022-11-20T10:53:40;142323.28;;;16.60;100.00
788;BME280;16074;42.708;23.312;2022-11-20T10:56:17;142260.31;;;16.34;100.00
788;BME280;16074;42.708;23.312;2022-11-20T10:58:57;142210.66;;;16.13;100.00
788;BME280;16074;42.708;23.312;2022-11-20T11:01:30;142159.81;;;15.92;100.00
788;BME280;16074;42.708;23.312;2022-11-20T11:03:58;142081.16;;;15.60;100.00
788;BME280;16074;42.708;23.312;2022-11-20T11:06:32;141968.66;;;15.14;100.00
788;BME280;16074;42.708;23.312;2022-11-20T11:09:09;141811.50;;;14.49;100.00
788;BME280;16074;42.708;23.312;2022-11-20T11:11:40;141460.03;;;13.04;100.00
788;BME280;16074;42.708;23.312;2022-11-20T11:14:10;141386.38;;;12.74;100.00
788;BME280;16074;42.708;23.312;2022-11-20T11:16:48;141399.63;;;12.79;100.00
788;BME280;16074;42.708;23.312;2022-11-20T11:19:17;141429.88;;;12.92;100.00
788;BME280;16074;42.708;23.312;2022-11-20T11:21:47;141435.88;;;12.94;100.00
788;BME280;16074;42.708;23.312;2022-11-20T11:24:23;141409.28;;;12.83;100.00
788;BME280;16074;42.708;23.312;2022-11-20T11:27:12;141402.03;;;12.80;100.00
788;BME280;16074;42.708;23.312;2022-11-20T11:29:43;141410.50;;;12.84;100.00
788;BME280;16074;42.708;23.312;2022-11-20T11:32:16;141396.03;;;12.78;100.00
788;BME280;16074;42.708;23.312;2022-11-20T11:34:58;141383.97;;;12.73;100.00
788;BME280;16074;42.708;23.312;2022-11-20T11:37:32;141392.38;;;12.76;100.00
788;BME280;16074;42.708;23.312;2022-11-20T11:40:02;141398.44;;;12.79;100.00
788;BME280;16074;42.708;23.312;2022-11-20T11:42:54;141398.44;;;12.79;100.00
788;BME280;16074;42.708;23.312;2022-11-20T11:45:24;141421.34;;;12.88;100.00
788;BME280;16074;42.708;23.312;2022-11-20T11:47:55;141416.53;;;12.86;100.00
788;BME280;16074;42.708;23.312;2022-11-20T11:50:25;141414.09;;;12.85;100.00
788;BME280;16074;42.708;23.312;2022-11-20T11:53:07;141388.78;;;12.75;100.00
788;BME280;16074;42.708;23.312;2022-11-20T11:55:40;141421.34;;;12.88;100.00
788;BME280;16074;42.708;23.312;2022-11-20T11:58:38;141416.53;;;12.86;100.00
788;BME280;16074;42.708;23.312;2022-11-20T12:01:17;141414.09;;;12.85;100.00
788;BME280;16074;42.708;23.312;2022-11-20T12:03:55;141402.03;;;12.80;100.00
788;BME280;16074;42.708;23.312;2022-11-20T12:06:27;141400.84;;;12.80;100.00
788;BME280;16074;42.708;23.312;2022-11-20T12:09:01;141423.75;;;12.89;100.00
788;BME280;16074;42.708;23.312;2022-11-20T12:11:33;141397.22;;;12.78;100.00
788;BME280;16074;42.708;23.312;2022-11-20T12:14:10;141451.59;;;13.01;100.00
788;BME280;16074;42.708;23.312;2022-11-20T12:16:40;141433.47;;;12.93;100.00
788;BME280;16074;42.708;23.312;2022-11-20T12:19:11;141435.88;;;12.94;100.00
788;BME280;16074;42.708;23.312;2022-11-20T12:21:48;141435.88;;;12.94;100.00
788;BME280;16074;42.708;23.312;2022-11-20T12:24:36;141433.47;;;12.93;100.00
788;BME280;16074;42.708;23.312;2022-11-20T12:27:21;141427.47;;;12.91;100.00
788;BME280;16074;42.708;23.312;2022-11-20T12:30:01;141434.69;;;12.94;100.00
788;BME280;16074;42.708;23.312;2022-11-20T12:36:10;141420.16;;;12.88;100.00
788;BME280;16074;42.708;23.312;2022-11-20T12:39:13;141457.63;;;13.03;100.00
788;BME280;16074;42.708;23.312;2022-11-20T12:51:26;141398.44;;;12.79;100.00
788;BME280;16074;42.708;23.312;2022-11-20T12:54:22;141404.44;;;12.81;100.00
788;BME280;16074;42.708;23.312;2022-11-20T12:57:03;141412.94;;;12.85;100.00
788;BME280;16074;42.708;23.312;2022-11-20T12:59:47;141416.53;;;12.86;100.00
788;BME280;16074;42.708;23.312;2022-11-20T13:02:25;141429.88;;;12.92;100.00
788;BME280;16074;42.708;23.312;2022-11-20T13:05:09;141421.34;;;12.88;100.00
788;BME280;16074;42.708;23.312;2022-11-20T13:07:43;141411.69;;;12.84;100.00
788;BME280;16074;42.708;23.312;2022-11-20T13:10:19;141398.44;;;12.79;100.00
788;BME280;16074;42.708;23.312;2022-11-20T13:12:56;141404.44;;;12.81;100.00
788;BME280;16074;42.708;23.312;2022-11-20T13:15:36;141412.94;;;12.85;100.00
788;BME280;16074;42.708;23.312;2022-11-20T13:18:09;141434.69;;;12.94;100.00
788;BME280;16074;42.708;23.312;2022-11-20T13:20:42;141439.53;;;12.96;100.00
788;BME280;16074;42.708;23.312;2022-11-20T13:23:23;141446.78;;;12.99;100.00
788;BME280;16074;42.708;23.312;2022-11-20T13:26:03;141447.97;;;12.99;100.00
788;BME280;16074;42.708;23.312;2022-11-20T13:28:32;141460.03;;;13.04;100.00
788;BME280;16074;42.708;23.312;2022-11-20T13:31:00;141472.09;;;13.09;100.00
788;BME280;16074;42.708;23.312;2022-11-20T13:33:30;141462.44;;;13.05;100.00
788;BME280;16074;42.708;23.312;2022-11-20T13:36:00;141480.53;;;13.12;100.00